Skip Navigation Links Skip Navigation Links

Current Weather

De Kalb Taylor Muni, De Kalb, Ill.

For information only: do not use for flight planning or navigation.
Latest weather
Observation time Sunday, August 25, 2019 12:30 AM CDT
Local time Sunday, August 25, 2019 12:53 AM CDT
Flight conditions Visual Meteorological Conditions
Winds
Wind direction East-Northeast (70°)
Wind speed 6 mph
Visibility 10 mi.
Sky condition
Ceiling unlimited
Sky clear
Temperature 55°F
Dewpoint 52°F
Altimeter 30.19 in.Hg
Derived measurements
Relative humidity 92%
Density altitude 510 ft.
Remarks
Fully automated report.
Automated weather observing station with precipitation discriminator.
METAR KDKB 250530Z AUTO 07005KT 10SM CLR 13/11 A3019 RMK AO2 T01260113

Settings

Location code

InnerDrive.Weather 4.0.6770.0 Release CLR 4.0.30319.42000
Copyright ©2018 Inner Drive Technology. All rights reserved. Portions Copyright ©1986-2018 David Braverman.

Find weather

Site navigation


Skip Navigation Links

Place info

Page info

PayPal - The safer, easier way to pay online!

Return home.

Copyright ©2019 Inner Drive Technology. Purveyors of fine, hand-crafted computer software. Page printed 2019-08-25T05:53:46 UTC.